Time,TemperatureF,DewpointF,PressureIn,WindDirection,WindDirectionDegrees,WindSpeedMPH,WindSpeedGustMPH,Humidity,HourlyPrecipIn,Conditions,Clouds,dailyrainin,SoftwareType,DateUTC
2013-03-07 00:01:00,35.0,25.0,29.85,South,186,3.0,4.0,66,0.00,,,-99.99,,2013-03-07 07:01:00,
2013-03-07 00:11:00,34.0,24.0,29.86,WNW,302,2.0,4.0,68,0.00,,,-99.99,,2013-03-07 07:11:00,
2013-03-07 00:21:00,34.0,24.0,29.86,South,175,5.0,5.0,69,0.00,,,-99.99,,2013-03-07 07:21:00,
2013-03-07 00:32:00,35.0,25.0,29.86,South,175,6.0,7.0,66,0.00,,,-99.99,,2013-03-07 07:32:00,
2013-03-07 00:42:00,36.0,24.0,29.85,SSE,162,8.0,9.0,61,0.00,,,-99.99,,2013-03-07 07:42:00,
2013-03-07 00:52:00,35.0,24.0,29.86,SE,141,3.0,8.0,63,0.00,,,-99.99,,2013-03-07 07:52:00,
2013-03-07 01:02:00,36.0,24.0,29.86,SW,231,3.0,8.0,62,0.00,,,-99.99,,2013-03-07 08:02:00,
2013-03-07 01:12:00,35.0,24.0,29.86,SSE,167,1.0,5.0,64,0.00,,,-99.99,,2013-03-07 08:12:00,
2013-03-07 01:22:00,35.0,24.0,29.86,SSW,201,2.0,4.0,63,0.00,,,-99.99,,2013-03-07 08:22:00,
2013-03-07 01:32:00,34.0,24.0,29.86,South,170,5.0,7.0,66,0.00,,,-99.99,,2013-03-07 08:32:00,
2013-03-07 01:43:00,35.0,24.0,29.86,South,172,4.0,6.0,66,0.00,,,-99.99,,2013-03-07 08:43:00,
2013-03-07 01:52:00,34.0,24.0,29.86,South,177,3.0,5.0,65,0.00,,,-99.99,,2013-03-07 08:52:00,
2013-03-07 02:03:00,34.0,24.0,29.86,SSE,168,3.0,5.0,64,0.00,,,-99.99,,2013-03-07 09:03:00,
2013-03-07 02:12:00,35.0,23.0,29.86,SSW,206,2.0,6.0,63,0.00,,,-99.99,,2013-03-07 09:12:00,
2013-03-07 02:22:00,34.0,24.0,29.86,SW,228,4.0,5.0,66,0.00,,,-99.99,,2013-03-07 09:22:00,
2013-03-07 02:32:00,33.0,23.0,29.85,SE,132,3.0,5.0,69,0.00,,,-99.99,,2013-03-07 09:32:00,
2013-03-07 02:42:00,32.0,23.0,29.85,SSE,150,1.0,4.0,68,0.00,,,-99.99,,2013-03-07 09:42:00,
2013-03-07 02:52:00,34.0,24.0,29.85,SSW,192,2.0,4.0,67,0.00,,,-99.99,,2013-03-07 09:52:00,
2013-03-07 03:02:00,35.0,24.0,29.85,SSE,166,5.0,7.0,65,0.00,,,-99.99,,2013-03-07 10:02:00,
2013-03-07 03:12:00,34.0,23.0,29.85,SSW,202,3.0,6.0,65,0.00,,,-99.99,,2013-03-07 10:12:00,
2013-03-07 03:22:00,32.0,23.0,29.85,SSE,156,6.0,6.0,68,0.00,,,-99.99,,2013-03-07 10:22:00,
2013-03-07 03:32:00,32.0,23.0,29.85,SSW,201,1.0,7.0,68,0.00,,,-99.99,,2013-03-07 10:32:00,
2013-03-07 03:42:00,32.0,23.0,29.85,South,181,3.0,5.0,69,0.00,,,-99.99,,2013-03-07 10:42:00,
2013-03-07 03:52:00,33.0,23.0,29.85,SSW,204,3.0,4.0,68,0.00,,,-99.99,,2013-03-07 10:52:00,
2013-03-07 04:02:00,33.0,23.0,29.85,South,177,6.0,6.0,66,0.00,,,-99.99,,2013-03-07 11:02:00,
2013-03-07 04:12:00,34.0,23.0,29.86,SSW,205,4.0,7.0,63,0.00,,,-99.99,,2013-03-07 11:12:00,
2013-03-07 04:22:00,33.0,22.0,29.86,SW,236,3.0,5.0,64,0.00,,,-99.99,,2013-03-07 11:22:00,
2013-03-07 04:33:00,32.0,23.0,29.86,WSW,237,3.0,5.0,67,0.00,,,-99.99,,2013-03-07 11:33:00,
2013-03-07 04:42:00,32.0,22.0,29.86,SSW,210,2.0,3.0,66,0.00,,,-99.99,,2013-03-07 11:42:00,
2013-03-07 04:52:00,32.0,22.0,29.87,SSW,210,0.0,2.0,66,0.00,,,-99.99,,2013-03-07 11:52:00,
2013-03-07 05:02:00,33.0,22.0,29.87,SW,214,4.0,5.0,66,0.00,,,-99.99,,2013-03-07 12:02:00,
2013-03-07 05:12:00,33.0,22.0,29.87,SSW,198,5.0,6.0,65,0.00,,,-99.99,,2013-03-07 12:12:00,
2013-03-07 05:22:00,32.0,22.0,29.87,South,178,3.0,5.0,65,0.00,,,-99.99,,2013-03-07 12:22:00,
2013-03-07 05:33:00,32.0,23.0,29.87,SSE,156,3.0,3.0,70,0.00,,,-99.99,,2013-03-07 12:33:00,
2013-03-07 05:42:00,33.0,23.0,29.87,South,183,4.0,8.0,67,0.00,,,-99.99,,2013-03-07 12:42:00,
2013-03-07 05:52:00,33.0,23.0,29.87,SSW,202,3.0,5.0,66,0.00,,,-99.99,,2013-03-07 12:52:00,
2013-03-07 06:02:00,33.0,23.0,29.89,SW,219,5.0,5.0,64,0.00,,,-99.99,,2013-03-07 13:02:00,
2013-03-07 06:12:00,33.0,23.0,29.89,SSW,198,4.0,7.0,64,0.00,,,-99.99,,2013-03-07 13:12:00,
2013-03-07 06:22:00,34.0,22.0,29.89,SSW,204,5.0,8.0,61,0.00,,,-99.99,,2013-03-07 13:22:00,
2013-03-07 06:32:00,33.0,21.0,29.89,SSW,202,4.0,7.0,61,0.00,,,-99.99,,2013-03-07 13:32:00,
2013-03-07 06:42:00,34.0,21.0,29.90,SSE,159,4.0,6.0,60,0.00,,,-99.99,,2013-03-07 13:42:00,
2013-03-07 06:52:00,34.0,20.0,29.90,SSE,162,3.0,7.0,57,0.00,,,-99.99,,2013-03-07 13:52:00,
2013-03-07 07:01:00,34.0,20.0,29.91,SSE,159,4.0,8.0,56,0.00,,,-99.99,,2013-03-07 14:01:00,
2013-03-07 07:12:00,35.0,21.0,29.91,SW,219,3.0,7.0,56,0.00,,,-99.99,,2013-03-07 14:12:00,
2013-03-07 07:22:00,35.0,21.0,29.92,SW,216,5.0,6.0,57,0.00,,,-99.99,,2013-03-07 14:22:00,
2013-03-07 07:32:00,35.0,21.0,29.93,SSW,206,2.0,7.0,57,0.00,,,-99.99,,2013-03-07 14:32:00,
2013-03-07 07:42:00,36.0,21.0,29.93,WNW,287,2.0,3.0,54,0.00,,,-99.99,,2013-03-07 14:42:00,
2013-03-07 07:52:00,38.0,22.0,29.94,WNW,300,1.0,2.0,53,0.00,,,-99.99,,2013-03-07 14:52:00,
2013-03-07 08:02:00,38.0,22.0,29.94,North,359,3.0,4.0,52,0.00,,,-99.99,,2013-03-07 15:02:00,
2013-03-07 08:12:00,38.0,23.0,29.96,North,353,3.0,5.0,52,0.00,,,-99.99,,2013-03-07 15:12:00,
2013-03-07 08:22:00,40.0,24.0,29.96,NNW,334,2.0,6.0,53,0.00,,,-99.99,,2013-03-07 15:22:00,
2013-03-07 08:32:00,40.0,23.0,29.96,NNE,31,4.0,5.0,50,0.00,,,-99.99,,2013-03-07 15:32:00,
2013-03-07 08:42:00,43.0,23.0,29.96,NNE,18,5.0,5.0,46,0.00,,,-99.99,,2013-03-07 15:42:00,
2013-03-07 08:52:00,44.0,23.0,29.96,NNE,16,4.0,5.0,44,0.00,,,-99.99,,2013-03-07 15:52:00,
2013-03-07 09:02:00,46.0,25.0,29.96,North,357,2.0,7.0,46,0.00,,,-99.99,,2013-03-07 16:02:00,
2013-03-07 09:12:00,45.0,26.0,29.96,NW,316,5.0,6.0,48,0.00,,,-99.99,,2013-03-07 16:12:00,
2013-03-07 09:23:00,44.0,27.0,29.96,NW,318,3.0,8.0,51,0.00,,,-99.99,,2013-03-07 16:23:00,
2013-03-07 09:32:00,46.0,27.0,29.96,South,184,1.0,7.0,50,0.00,,,-99.99,,2013-03-07 16:32:00,
2013-03-07 09:42:00,46.0,27.0,29.96,SE,131,3.0,6.0,48,0.00,,,-99.99,,2013-03-07 16:42:00,
2013-03-07 09:52:00,48.0,26.0,29.96,North,354,2.0,6.0,43,0.00,,,-99.99,,2013-03-07 16:52:00,
2013-03-07 10:02:00,48.0,27.0,29.96,North,357,2.0,5.0,44,0.00,,,-99.99,,2013-03-07 17:02:00,
2013-03-07 10:12:00,50.0,27.0,29.96,ENE,69,2.0,5.0,43,0.00,,,-99.99,,2013-03-07 17:12:00,
2013-03-07 10:22:00,51.0,26.0,29.96,East,99,3.0,4.0,37,0.00,,,-99.99,,2013-03-07 17:22:00,
2013-03-07 10:32:00,53.0,25.0,29.96,WNW,283,2.0,5.0,34,0.00,,,-99.99,,2013-03-07 17:32:00,
2013-03-07 10:42:00,53.0,23.0,29.96,SE,134,2.0,4.0,30,0.00,,,-99.99,,2013-03-07 17:42:00,
2013-03-07 10:53:00,55.0,21.0,29.96,NW,325,2.0,5.0,27,0.00,,,-99.99,,2013-03-07 17:53:00,
2013-03-07 11:03:00,54.0,20.0,29.96,East,95,3.0,6.0,26,0.00,,,-99.99,,2013-03-07 18:03:00,
2013-03-07 11:12:00,55.0,21.0,29.96,North,3,4.0,8.0,26,0.00,,,-99.99,,2013-03-07 18:12:00,
2013-03-07 11:21:00,56.0,25.0,29.96,NE,43,5.0,9.0,30,0.00,,,-99.99,,2013-03-07 18:21:00,
2013-03-07 11:32:00,56.0,24.0,29.96,ENE,57,5.0,10.0,29,0.00,,,-99.99,,2013-03-07 18:32:00,
2013-03-07 11:42:00,57.0,22.0,29.94,East,94,6.0,12.0,26,0.00,,,-99.99,,2013-03-07 18:42:00,
2013-03-07 11:52:00,57.0,22.0,29.94,ENE,70,13.0,15.0,26,0.00,,,-99.99,,2013-03-07 18:52:00,
2013-03-07 12:02:00,58.0,21.0,29.94,SE,139,6.0,13.0,24,0.00,,,-99.99,,2013-03-07 19:02:00,
2013-03-07 12:12:00,59.0,23.0,29.94,ESE,111,2.0,12.0,24,0.00,,,-99.99,,2013-03-07 19:12:00,
2013-03-07 12:23:00,60.0,24.0,29.93,SE,129,7.0,10.0,25,0.00,,,-99.99,,2013-03-07 19:23:00,
2013-03-07 12:34:00,62.0,24.0,29.93,SW,217,3.0,7.0,24,0.00,,,-99.99,,2013-03-07 19:34:00,
2013-03-07 12:43:00,61.0,23.0,29.92,NNE,27,5.0,9.0,22,0.00,,,-99.99,,2013-03-07 19:43:00,
2013-03-07 12:52:00,64.0,20.0,29.92,East,99,7.0,9.0,18,0.00,,,-99.99,,2013-03-07 19:52:00,
2013-03-07 13:02:00,63.0,17.0,29.91,ENE,58,3.0,8.0,17,0.00,,,-99.99,,2013-03-07 20:02:00,
2013-03-07 13:13:00,65.0,17.0,29.90,East,96,9.0,9.0,16,0.00,,,-99.99,,2013-03-07 20:13:00,
2013-03-07 13:22:00,63.0,16.0,29.89,ENE,72,7.0,13.0,16,0.00,,,-99.99,,2013-03-07 20:22:00,
2013-03-07 13:32:00,64.0,17.0,29.87,East,81,8.0,11.0,16,0.00,,,-99.99,,2013-03-07 20:32:00,
2013-03-07 13:42:00,63.0,21.0,29.87,ESE,106,17.0,20.0,20,0.00,,,-99.99,,2013-03-07 20:42:00,
2013-03-07 13:53:00,63.0,20.0,29.87,ENE,77,6.0,20.0,19,0.00,,,-99.99,,2013-03-07 20:53:00,
2013-03-07 14:02:00,63.0,19.0,29.86,East,90,15.0,20.0,19,0.00,,,-99.99,,2013-03-07 21:02:00,
2013-03-07 14:12:00,63.0,20.0,29.86,East,90,14.0,18.0,19,0.00,,,-99.99,,2013-03-07 21:12:00,
2013-03-07 14:22:00,63.0,20.0,29.86,ESE,106,15.0,20.0,19,0.00,,,-99.99,,2013-03-07 21:22:00,
2013-03-07 14:32:00,62.0,22.0,29.86,East,82,17.0,22.0,21,0.00,,,-99.99,,2013-03-07 21:32:00,
2013-03-07 14:42:00,62.0,22.0,29.86,East,87,19.0,20.0,21,0.00,,,-99.99,,2013-03-07 21:42:00,
2013-03-07 14:52:00,63.0,24.0,29.86,East,91,9.0,19.0,23,0.00,,,-99.99,,2013-03-07 21:52:00,
2013-03-07 15:01:00,62.0,22.0,29.85,ESE,116,11.0,20.0,21,0.00,,,-99.99,,2013-03-07 22:01:00,
2013-03-07 15:11:00,63.0,22.0,29.85,ENE,76,12.0,17.0,21,0.00,,,-99.99,,2013-03-07 22:11:00,
2013-03-07 15:22:00,63.0,23.0,29.85,East,84,13.0,18.0,22,0.00,,,-99.99,,2013-03-07 22:22:00,
2013-03-07 15:32:00,64.0,21.0,29.85,East,95,11.0,23.0,19,0.00,,,-99.99,,2013-03-07 22:32:00,
2013-03-07 15:42:00,65.0,20.0,29.84,ENE,62,14.0,19.0,18,0.00,,,-99.99,,2013-03-07 22:42:00,
2013-03-07 15:52:00,64.0,20.0,29.84,ESE,111,13.0,23.0,18,0.00,,,-99.99,,2013-03-07 22:52:00,
2013-03-07 16:02:00,65.0,18.0,29.84,East,90,11.0,24.0,16,0.00,,,-99.99,,2013-03-07 23:02:00,
2013-03-07 16:12:00,65.0,19.0,29.84,East,86,10.0,22.0,17,0.00,,,-99.99,,2013-03-07 23:12:00,
2013-03-07 16:22:00,65.0,13.0,29.83,SE,125,15.0,22.0,13,0.00,,,-99.99,,2013-03-07 23:22:00,
2013-03-07 16:33:00,65.0,12.0,29.84,South,171,12.0,20.0,12,0.00,,,-99.99,,2013-03-07 23:33:00,
2013-03-07 16:42:00,65.0,13.0,29.83,SE,134,8.0,25.0,13,0.00,,,-99.99,,2013-03-07 23:42:00,
2013-03-07 16:52:00,65.0,13.0,29.84,SSE,152,16.0,24.0,13,0.00,,,-99.99,,2013-03-07 23:52:00,
2013-03-07 17:03:00,64.0,13.0,29.84,SSE,153,14.0,25.0,13,0.00,,,-99.99,,2013-03-08 00:03:00,
2013-03-07 17:12:00,64.0,13.0,29.84,SE,130,12.0,22.0,13,0.00,,,-99.99,,2013-03-08 00:12:00,
2013-03-07 17:22:00,64.0,12.0,29.84,SSE,162,9.0,22.0,13,0.00,,,-99.99,,2013-03-08 00:22:00,
2013-03-07 17:33:00,63.0,13.0,29.85,South,182,12.0,12.0,14,0.00,,,-99.99,,2013-03-08 00:33:00,
2013-03-07 17:43:00,62.0,21.0,29.85,SSE,153,1.0,13.0,20,0.00,,,-99.99,,2013-03-08 00:43:00,
2013-03-07 17:52:00,59.0,23.0,29.85,West,269,8.0,13.0,24,0.00,,,-99.99,,2013-03-08 00:52:00,
2013-03-07 18:02:00,59.0,24.0,29.85,West,262,10.0,11.0,26,0.00,,,-99.99,,2013-03-08 01:02:00,
2013-03-07 18:11:00,57.0,25.0,29.86,WNW,283,11.0,14.0,29,0.00,,,-99.99,,2013-03-08 01:11:00,
2013-03-07 18:32:00,55.0,27.0,29.87,West,266,10.0,14.0,33,0.00,,,-99.99,,2013-03-08 01:32:00,
2013-03-07 18:42:00,55.0,26.0,29.87,WNW,294,9.0,16.0,33,0.00,,,-99.99,,2013-03-08 01:42:00,
2013-03-07 18:51:00,54.0,26.0,29.89,NW,319,8.0,13.0,34,0.00,,,-99.99,,2013-03-08 01:51:00,
2013-03-07 19:01:00,54.0,26.0,29.89,WNW,290,6.0,9.0,34,0.00,,,-99.99,,2013-03-08 02:01:00,
2013-03-07 19:11:00,53.0,27.0,29.90,WNW,287,7.0,11.0,35,0.00,,,-99.99,,2013-03-08 02:11:00,
2013-03-07 19:21:00,53.0,27.0,29.90,NW,316,10.0,10.0,37,0.00,,,-99.99,,2013-03-08 02:21:00,
2013-03-07 19:31:00,52.0,27.0,29.90,WNW,298,9.0,10.0,38,0.00,,,-99.99,,2013-03-08 02:31:00,
2013-03-07 19:42:00,52.0,27.0,29.90,WNW,297,7.0,11.0,38,0.00,,,-99.99,,2013-03-08 02:42:00,
2013-03-07 19:52:00,51.0,27.0,29.90,WNW,287,9.0,10.0,38,0.00,,,-99.99,,2013-03-08 02:52:00,
2013-03-07 20:02:00,51.0,26.0,29.90,WNW,296,10.0,11.0,38,0.00,,,-99.99,,2013-03-08 03:02:00,
2013-03-07 20:22:00,50.0,26.0,29.91,WNW,299,7.0,11.0,38,0.00,,,-99.99,,2013-03-08 03:22:00,
2013-03-07 20:32:00,50.0,26.0,29.91,WNW,295,6.0,14.0,39,0.00,,,-99.99,,2013-03-08 03:32:00,
2013-03-07 20:42:00,49.0,26.0,29.91,WNW,301,6.0,19.0,39,0.00,,,-99.99,,2013-03-08 03:42:00,
2013-03-07 20:52:00,49.0,25.0,29.92,West,263,3.0,12.0,39,0.00,,,-99.99,,2013-03-08 03:52:00,
2013-03-07 21:01:00,48.0,25.0,29.93,SSE,160,1.0,6.0,40,0.00,,,-99.99,,2013-03-08 04:01:00,
2013-03-07 21:11:00,49.0,25.0,29.92,West,266,5.0,5.0,40,0.00,,,-99.99,,2013-03-08 04:11:00,
2013-03-07 21:21:00,47.0,25.0,29.92,West,274,8.0,9.0,43,0.00,,,-99.99,,2013-03-08 04:21:00,
2013-03-07 21:32:00,48.0,25.0,29.93,WNW,285,8.0,12.0,40,0.00,,,-99.99,,2013-03-08 04:32:00,
2013-03-07 21:42:00,48.0,24.0,29.93,WNW,289,3.0,9.0,39,0.00,,,-99.99,,2013-03-08 04:42:00,
2013-03-07 21:51:00,48.0,24.0,29.94,WSW,252,5.0,7.0,38,0.00,,,-99.99,,2013-03-08 04:51:00,
2013-03-07 22:02:00,48.0,24.0,29.94,WNW,290,7.0,9.0,39,0.00,,,-99.99,,2013-03-08 05:02:00,
2013-03-07 22:12:00,47.0,24.0,29.94,West,272,5.0,8.0,40,0.00,,,-99.99,,2013-03-08 05:12:00,
2013-03-07 22:22:00,47.0,25.0,29.94,WNW,299,6.0,11.0,41,0.00,,,-99.99,,2013-03-08 05:22:00,
2013-03-07 22:32:00,47.0,25.0,29.96,West,264,4.0,9.0,41,0.00,,,-99.99,,2013-03-08 05:32:00,
2013-03-07 22:42:00,46.0,26.0,29.96,WNW,300,3.0,6.0,45,0.00,,,-99.99,,2013-03-08 05:42:00,
2013-03-07 22:52:00,45.0,26.0,29.96,North,349,2.0,5.0,46,0.00,,,-99.99,,2013-03-08 05:52:00,
2013-03-07 23:01:00,45.0,26.0,29.96,NW,322,5.0,5.0,47,0.00,,,-99.99,,2013-03-08 06:01:00,
2013-03-07 23:11:00,44.0,27.0,29.94,WNW,295,3.0,6.0,49,0.00,,,-99.99,,2013-03-08 06:11:00,
2013-03-07 23:21:00,43.0,27.0,29.96,NE,52,3.0,4.0,52,0.00,,,-99.99,,2013-03-08 06:21:00,
2013-03-07 23:32:00,43.0,27.0,29.96,ENE,64,3.0,3.0,55,0.00,,,-99.99,,2013-03-08 06:32:00,
2013-03-07 23:42:00,42.0,28.0,29.97,ENE,73,1.0,4.0,57,0.00,,,-99.99,,2013-03-08 06:42:00,
2013-03-07 23:51:00,41.0,28.0,29.97,North,354,2.0,3.0,57,0.00,,,-99.99,,2013-03-08 06:51:00,